»·PEaware :: N55335 KOXR-KLGB

N55335 :: KOXR-KLGB

FLIGHT INFORMATION

Flight Status: Arrived
Operator: Privately registered:
United States
More flights under this callsign
Pilot: John N. (18861)
Aircraft: COLUMBIA 400
(COL4)
More flights by this aircraft type
Origin: KOXR Oxnard
United States
Destination: KLGB Long Beach
United States
More flights between these airports :: More routes between these airports
Route: VTU044 GINNA V326 VNY V186 ADAMM V394 SLI
File this flight plan on PilotEdge
Remarks: VTUP6
Altitude:
(Current/Filed)
5,000ft
Speed:
(Current/Filed)
180kts
Departed: 06-Aug-21 11:53 AM
Arrived: 06-Aug-21 12:45 PM
Distance/Time
Traveled:
57nm/0:52
Distance/Time
To Go:
Arrived

Flight Plot

Page will automatically refresh every two minutes.


Map Options




Map Legend


Flown Route
Filed Route
Departure Airport
Arrival Airport
Navaid (VOR, NDB)
Fix

Horizontal Profiles

Position Reports

Time Latitude Longitude Heading Altitude Ground
Speed
06-Aug-21 11:41 34.198728 -119.202074 359 44ft 0kts
06-Aug-21 11:43 34.198728 -119.202074 359 44ft 0kts
06-Aug-21 11:44 34.198728 -119.202074 359 44ft 0kts
06-Aug-21 11:45 34.199196 -119.201991 16 45ft 1kts
06-Aug-21 11:46 34.199656 -119.197452 79 48ft 9kts
06-Aug-21 11:47 34.199794 -119.197352 326 48ft 0kts
06-Aug-21 11:48 34.199794 -119.197352 326 48ft 0kts
06-Aug-21 11:49 34.199794 -119.197352 326 48ft 0kts
06-Aug-21 11:50 34.199794 -119.197352 326 48ft 0kts
06-Aug-21 11:51 34.199930 -119.197460 341 48ft 1kts
06-Aug-21 11:52 34.200111 -119.197486 2 48ft 9kts
06-Aug-21 11:53 34.201662 -119.214133 283 482ft 112kts
06-Aug-21 11:54 34.201419 -119.253712 266 2122ft 116kts
06-Aug-21 11:55 34.199415 -119.293786 266 3582ft 118kts
06-Aug-21 11:56 34.209840 -119.334627 347 4081ft 172kts
06-Aug-21 11:57 34.223336 -119.289662 94 4906ft 179kts
06-Aug-21 11:58 34.223155 -119.224881 89 4989ft 200kts
06-Aug-21 11:59 34.223364 -119.157152 90 4986ft 202kts
06-Aug-21 12:00 34.223525 -119.089010 90 4984ft 202kts
06-Aug-21 12:01 34.223648 -119.021339 90 4982ft 202kts
06-Aug-21 12:02 34.223739 -118.953300 90 4982ft 202kts
06-Aug-21 12:03 34.223790 -118.885073 90 4982ft 203kts
06-Aug-21 12:04 34.223802 -118.816395 91 4982ft 204kts
06-Aug-21 12:05 34.223786 -118.747729 91 4981ft 204kts
06-Aug-21 12:06 34.223716 -118.679295 92 4978ft 202kts
06-Aug-21 12:06 34.223628 -118.623013 92 4994ft 200kts
06-Aug-21 12:07 34.223484 -118.556445 92 4992ft 197kts
06-Aug-21 12:09 34.219546 -118.481285 110 4996ft 192kts
06-Aug-21 12:10 34.201985 -118.421005 112 4996ft 191kts
06-Aug-21 12:11 34.183734 -118.361094 113 4996ft 191kts
06-Aug-21 12:11 34.166756 -118.311606 116 4916ft 191kts
06-Aug-21 12:12 34.150496 -118.251945 111 4917ft 188kts
06-Aug-21 12:13 34.132763 -118.193572 111 4917ft 186kts
06-Aug-21 12:15 34.111375 -118.123516 108 4919ft 197kts
06-Aug-21 12:16 34.092065 -118.060514 109 4917ft 201kts
06-Aug-21 12:16 34.076261 -118.009029 110 4911ft 191kts
06-Aug-21 12:17 34.058144 -117.950097 111 4903ft 183kts
06-Aug-21 12:18 34.040617 -117.893236 112 4898ft 179kts
06-Aug-21 12:19 34.023082 -117.837537 123 4886ft 175kts
06-Aug-21 12:20 33.979390 -117.835466 202 4123ft 174kts
06-Aug-21 12:21 33.937160 -117.855591 202 3907ft 147kts
06-Aug-21 12:22 33.901290 -117.872914 202 3915ft 133kts
06-Aug-21 12:23 33.868101 -117.888936 202 3987ft 127kts
06-Aug-21 12:24 33.835263 -117.905490 205 3997ft 130kts
06-Aug-21 12:25 33.807940 -117.929920 269 3979ft 125kts
06-Aug-21 12:26 33.805440 -117.967376 252 4030ft 113kts
06-Aug-21 12:27 33.795435 -118.001963 220 3884ft 116kts
06-Aug-21 12:28 33.764819 -117.989491 152 3417ft 125kts
06-Aug-21 12:29 33.736281 -117.967994 152 2860ft 119kts
06-Aug-21 12:30 33.705910 -117.969573 215 2134ft 113kts
06-Aug-21 12:31 33.714782 -117.996954 327 1820ft 105kts
06-Aug-21 12:32 33.735000 -118.001731 89 2036ft 120kts
06-Aug-21 12:33 33.724109 -117.967921 135 2016ft 97kts
06-Aug-21 12:34 33.703743 -117.945876 191 2005ft 108kts
06-Aug-21 12:35 33.675472 -117.960873 208 2001ft 114kts
06-Aug-21 12:36 33.661645 -117.986576 311 2111ft 102kts
06-Aug-21 12:37 33.692509 -117.998433 339 1961ft 98kts
06-Aug-21 12:38 33.717140 -118.017848 310 1501ft 102kts
06-Aug-21 12:39 33.737259 -118.041954 306 1893ft 106kts
06-Aug-21 12:40 33.757621 -118.066071 310 1429ft 102kts
06-Aug-21 12:41 33.773494 -118.092911 302 1446ft 97kts
06-Aug-21 12:42 33.792032 -118.119115 312 881ft 81kts
06-Aug-21 12:43 33.807399 -118.138641 306 176ft 79kts
06-Aug-21 12:44 33.814867 -118.150430 254 40ft 0kts
06-Aug-21 12:45 33.812438 -118.151147 314 40ft 4kts
06-Aug-21 12:46 33.812459 -118.151152 6 40ft 2kts

Navigation Log

Ident Type
Flight plan parsing failed, navigation log unavailable